createdAt,value
2022-10-05T00:01:44.178Z,86.95
2022-10-05T00:04:22.797Z,87.08
2022-10-05T00:07:20.553Z,87.20
2022-10-05T00:10:21.753Z,87.22
2022-10-05T00:12:48.729Z,87.36
2022-10-05T00:15:17.941Z,87.39
2022-10-05T00:17:51.308Z,87.48
2022-10-05T00:20:24.308Z,87.51
2022-10-05T00:22:58.170Z,87.53
2022-10-05T00:25:25.166Z,87.42
2022-10-05T00:28:37.813Z,87.42
2022-10-05T00:31:14.420Z,87.26
2022-10-05T00:33:55.025Z,87.16
2022-10-05T00:36:26.085Z,87.49
2022-10-05T00:38:53.416Z,87.61
2022-10-05T00:41:49.452Z,87.82
2022-10-05T00:59:59.201Z,88.84
2022-10-05T01:23:22.445Z,90.79
2022-10-05T01:26:24.246Z,91.30
2022-10-05T01:29:16.815Z,91.62
2022-10-05T01:32:11.117Z,91.86
2022-10-05T01:35:06.064Z,91.86
2022-10-05T01:37:47.824Z,91.90
2022-10-05T01:40:38.683Z,92.18
2022-10-05T01:43:20.328Z,92.26
2022-10-05T01:45:58.268Z,92.28
2022-10-05T01:49:02.048Z,92.53
2022-10-05T01:51:43.980Z,92.47
2022-10-05T01:54:20.273Z,92.72
2022-10-05T01:57:00.237Z,93.09
2022-10-05T01:59:49.435Z,93.08
2022-10-05T02:02:17.448Z,93.11
2022-10-05T02:05:03.488Z,93.06
2022-10-05T02:07:37.963Z,93.19
2022-10-05T02:10:33.204Z,93.37
2022-10-05T02:13:25.516Z,93.29
2022-10-05T02:16:03.794Z,93.21
2022-10-05T02:18:34.217Z,93.15
2022-10-05T02:21:04.671Z,93.13
2022-10-05T02:23:33.863Z,92.82
2022-10-05T02:26:01.123Z,93.03
2022-10-05T02:28:38.510Z,92.98
2022-10-05T02:31:15.104Z,92.96
2022-10-05T02:33:41.621Z,93.26
2022-10-05T02:36:17.283Z,93.40
2022-10-05T02:38:55.852Z,93.69
2022-10-05T02:41:56.474Z,93.87
2022-10-05T02:44:31.896Z,94.03
2022-10-05T02:47:00.408Z,94.01
2022-10-05T02:49:52.896Z,94.02
2022-10-05T02:52:28.059Z,93.91
2022-10-05T02:55:18.015Z,93.86
2022-10-05T02:57:52.663Z,94.04
2022-10-05T03:00:24.085Z,94.11
2022-10-05T03:03:01.147Z,93.96
2022-10-05T03:06:10.071Z,94.12
2022-10-05T03:08:58.627Z,94.22
2022-10-05T03:11:30.494Z,94.12
2022-10-05T03:14:15.353Z,94.11
2022-10-05T03:17:03.588Z,94.11
2022-10-05T03:19:58.361Z,93.87
2022-10-05T03:22:44.084Z,93.90
2022-10-05T03:25:28.857Z,93.94
2022-10-05T03:27:59.147Z,93.45
2022-10-05T03:30:28.711Z,93.11
2022-10-05T03:33:21.423Z,93.24
2022-10-05T03:35:51.583Z,92.96
2022-10-05T03:38:40.320Z,93.19
2022-10-05T03:41:17.791Z,93.10
2022-10-05T03:44:09.369Z,93.01
2022-10-05T03:46:52.537Z,92.86
2022-10-05T03:49:43.396Z,92.84
2022-10-05T03:52:16.680Z,92.51
2022-10-05T03:54:51.887Z,92.49
2022-10-05T03:57:21.579Z,92.44
2022-10-05T04:00:06.480Z,92.49
2022-10-05T04:03:24.793Z,92.25
2022-10-05T04:05:56.537Z,92.07
2022-10-05T04:08:47.860Z,92.14
2022-10-05T04:11:32.381Z,92.29
2022-10-05T04:14:05.125Z,92.07
2022-10-05T04:16:35.289Z,91.96
2022-10-05T04:19:17.275Z,92.01
2022-10-05T04:21:51.700Z,92.20
2022-10-05T04:24:24.696Z,92.14
2022-10-05T04:26:55.295Z,91.99
2022-10-05T04:29:33.961Z,92.04
2022-10-05T04:32:16.769Z,92.06
2022-10-05T04:35:24.175Z,92.29
2022-10-05T04:38:14.037Z,91.89
2022-10-05T04:40:54.137Z,92.69
2022-10-05T04:43:34.795Z,92.60
2022-10-05T04:46:06.648Z,92.86
2022-10-05T04:48:51.260Z,92.79
2022-10-05T04:51:29.893Z,92.73
2022-10-05T04:54:20.097Z,93.03
2022-10-05T04:56:53.424Z,93.15
2022-10-05T04:59:43.468Z,93.20
2022-10-05T05:02:20.106Z,93.33
2022-10-05T05:04:51.777Z,93.16
2022-10-05T05:07:31.059Z,93.36
2022-10-05T05:10:12.387Z,93.21
2022-10-05T05:13:07.433Z,93.17
2022-10-05T05:16:02.145Z,93.51
2022-10-05T05:19:06.536Z,93.42
2022-10-05T05:21:50.720Z,93.66
2022-10-05T05:24:24.836Z,93.42
2022-10-05T05:27:27.668Z,93.52
2022-10-05T05:30:02.853Z,93.70
2022-10-05T05:32:41.493Z,93.63
2022-10-05T05:35:45.247Z,93.89
2022-10-05T05:38:20.792Z,93.73
2022-10-05T05:41:03.973Z,93.78
2022-10-05T05:43:56.985Z,93.86
2022-10-05T05:46:51.141Z,93.72
2022-10-05T05:49:18.678Z,93.82
2022-10-05T05:52:16.195Z,93.99
2022-10-05T05:54:53.866Z,94.13
2022-10-05T05:57:26.879Z,94.20
2022-10-05T06:00:05.580Z,94.17
2022-10-05T06:02:50.975Z,94.45
2022-10-05T06:05:27.758Z,94.48
2022-10-05T06:07:58.288Z,94.33
2022-10-05T06:10:28.980Z,94.32
2022-10-05T06:13:07.275Z,94.18
2022-10-05T06:15:35.156Z,93.96
2022-10-05T06:18:14.213Z,93.88
2022-10-05T06:21:22.432Z,93.90
2022-10-05T06:24:14.921Z,93.82
2022-10-05T06:27:03.703Z,93.82
2022-10-05T06:29:35.203Z,93.91
2022-10-05T06:32:06.903Z,93.70
2022-10-05T06:35:03.728Z,93.66
2022-10-05T06:37:52.052Z,93.90
2022-10-05T06:40:45.962Z,93.93
2022-10-05T06:43:23.331Z,93.98
2022-10-05T06:46:22.754Z,93.78
2022-10-05T06:49:18.035Z,93.80
2022-10-05T06:52:19.968Z,93.69
2022-10-05T06:55:06.553Z,93.59
2022-10-05T06:57:50.077Z,93.61
2022-10-05T07:00:20.646Z,93.63
2022-10-05T07:03:17.208Z,94.28
2022-10-05T07:06:14.228Z,94.99
2022-10-05T07:08:47.132Z,95.24
2022-10-05T07:11:31.383Z,95.62
2022-10-05T07:14:24.348Z,95.89
2022-10-05T07:17:18.420Z,95.87
2022-10-05T07:20:00.916Z,95.61
2022-10-05T07:22:55.203Z,95.56
2022-10-05T07:25:40.313Z,95.61
2022-10-05T07:28:10.763Z,95.46
2022-10-05T07:30:50.179Z,95.14
2022-10-05T07:33:25.729Z,95.07
2022-10-05T07:36:19.432Z,95.25
2022-10-05T07:38:54.620Z,95.06
2022-10-05T07:41:32.261Z,95.11
2022-10-05T07:44:12.519Z,95.13
2022-10-05T07:46:55.013Z,95.43
2022-10-05T07:49:26.928Z,95.03
2022-10-05T07:52:17.429Z,95.35
2022-10-05T07:55:11.843Z,95.36
2022-10-05T07:57:40.432Z,95.37
2022-10-05T08:00:14.464Z,95.68
2022-10-05T08:02:52.983Z,95.72
2022-10-05T08:05:21.827Z,95.58
2022-10-05T08:07:52.110Z,95.69
2022-10-05T08:10:39.692Z,95.96
2022-10-05T08:13:32.807Z,96.15
2022-10-05T08:16:02.080Z,96.26
2022-10-05T08:18:48.287Z,96.61
2022-10-05T08:21:16.270Z,96.44
2022-10-05T08:23:48.931Z,96.42
2022-10-05T08:26:38.880Z,96.54
2022-10-05T08:29:21.284Z,96.54
2022-10-05T08:31:51.534Z,96.82
2022-10-05T08:34:30.905Z,96.60
2022-10-05T08:37:09.212Z,96.89
2022-10-05T08:39:40.785Z,96.76
2022-10-05T08:42:35.304Z,96.43
2022-10-05T08:45:30.720Z,96.56
2022-10-05T08:48:18.852Z,96.83
2022-10-05T08:51:06.564Z,96.98
2022-10-05T08:53:41.484Z,97.11
2022-10-05T08:56:28.486Z,96.67
2022-10-05T08:59:18.016Z,96.07
2022-10-05T09:01:56.454Z,95.39
2022-10-05T09:04:37.829Z,94.78
2022-10-05T09:07:37.991Z,93.97
2022-10-05T09:10:33.540Z,93.02
2022-10-05T09:13:23.315Z,92.18
2022-10-05T09:16:11.171Z,91.55
2022-10-05T09:19:11.692Z,91.11
2022-10-05T09:21:41.897Z,90.44
2022-10-05T09:24:14.194Z,90.47
2022-10-05T09:26:40.479Z,89.86
2022-10-05T09:29:38.116Z,89.89
2022-10-05T09:32:23.641Z,89.49
2022-10-05T09:35:05.178Z,89.40
2022-10-05T09:37:53.429Z,88.93
2022-10-05T09:40:51.054Z,88.43
2022-10-05T09:43:46.676Z,87.77
2022-10-05T09:46:45.744Z,87.29
2022-10-05T09:49:32.072Z,86.74
2022-10-05T09:52:31.335Z,86.73
2022-10-05T09:55:09.144Z,86.46
2022-10-05T09:58:12.623Z,86.10
2022-10-05T10:01:09.416Z,85.47
2022-10-05T10:04:10.251Z,85.72
2022-10-05T10:06:55.555Z,85.24
2022-10-05T10:09:38.496Z,84.73
2022-10-05T10:12:29.892Z,84.37
2022-10-05T10:15:32.597Z,83.23
2022-10-05T10:18:37.077Z,83.57
2022-10-05T10:21:33.795Z,82.97
2022-10-05T10:24:10.372Z,81.96
2022-10-05T10:27:05.284Z,81.49
2022-10-05T10:29:56.491Z,81.59
2022-10-05T10:32:42.205Z,81.90
2022-10-05T10:35:22.722Z,81.65
2022-10-05T10:38:17.309Z,81.71
2022-10-05T10:41:05.558Z,81.61
2022-10-05T10:43:40.996Z,81.56
2022-10-05T10:46:29.232Z,81.11
2022-10-05T10:49:21.880Z,81.23
2022-10-05T10:52:19.884Z,81.24
2022-10-05T10:55:05.467Z,81.16
2022-10-05T10:58:16.203Z,81.12
2022-10-05T11:01:09.679Z,80.80
2022-10-05T11:04:01.252Z,80.60
2022-10-05T11:06:58.259Z,79.93
2022-10-05T11:09:55.764Z,79.41
2022-10-05T11:12:59.655Z,78.90
2022-10-05T11:15:53.321Z,78.90
2022-10-05T11:18:46.671Z,78.79
2022-10-05T11:21:37.104Z,79.13
2022-10-05T11:24:28.256Z,79.10
2022-10-05T11:27:25.752Z,79.06
2022-10-05T11:30:13.754Z,78.83
2022-10-05T11:33:03.807Z,78.09
2022-10-05T11:35:49.160Z,78.10
2022-10-05T11:38:27.327Z,77.95
2022-10-05T11:41:06.048Z,77.83
2022-10-05T11:43:38.503Z,77.96
2022-10-05T11:46:08.627Z,77.67
2022-10-05T11:48:57.283Z,76.94
2022-10-05T11:52:00.554Z,77.21
2022-10-05T11:57:43.113Z,75.90
2022-10-05T12:00:21.032Z,76.13
2022-10-05T12:03:21.535Z,75.97
2022-10-05T12:06:11.351Z,75.40
2022-10-05T12:08:56.468Z,75.74
2022-10-05T12:11:57.756Z,75.49
2022-10-05T12:14:33.374Z,74.56
2022-10-05T12:17:11.119Z,74.78
2022-10-05T12:19:46.031Z,74.60
2022-10-05T12:22:27.213Z,73.95
2022-10-05T12:25:15.721Z,73.33
2022-10-05T12:27:46.082Z,73.37
2022-10-05T12:30:18.076Z,73.70
2022-10-05T12:33:10.608Z,73.00
2022-10-05T12:35:48.185Z,72.61
2022-10-05T12:38:28.784Z,72.84
2022-10-05T12:41:13.431Z,72.03
2022-10-05T12:44:13.200Z,71.73
2022-10-05T12:47:01.028Z,71.41
2022-10-05T12:49:43.419Z,71.52
2022-10-05T12:52:28.207Z,71.39
2022-10-05T12:55:33.061Z,71.70
2022-10-05T12:58:15.788Z,71.48
2022-10-05T13:01:24.432Z,71.20
2022-10-05T13:03:56.960Z,70.74
2022-10-05T13:06:28.523Z,70.79
2022-10-05T13:09:08.434Z,70.65
2022-10-05T13:11:42.763Z,70.42
2022-10-05T13:14:51.320Z,69.69
2022-10-05T13:17:34.613Z,69.82
2022-10-05T13:20:14.468Z,69.99
2022-10-05T13:22:43.927Z,69.30
2022-10-05T13:25:13.228Z,68.98
2022-10-05T13:27:45.597Z,69.11
2022-10-05T13:30:12.164Z,68.97
2022-10-05T13:32:56.936Z,68.44
2022-10-05T13:35:40.190Z,68.31
2022-10-05T13:38:51.306Z,68.44
2022-10-05T13:41:32.747Z,69.24
2022-10-05T13:44:06.004Z,68.13
2022-10-05T13:46:36.794Z,67.94
2022-10-05T13:49:09.209Z,67.37
2022-10-05T13:51:48.666Z,67.92
2022-10-05T13:54:40.548Z,67.33
2022-10-05T13:57:12.947Z,67.59
2022-10-05T13:59:48.485Z,67.60
2022-10-05T14:02:22.028Z,66.57
2022-10-05T14:04:58.461Z,66.96
2022-10-05T14:07:36.636Z,66.90
2022-10-05T14:10:10.433Z,66.78
2022-10-05T14:12:42.137Z,66.72
2022-10-05T14:15:42.112Z,66.62
2022-10-05T14:18:24.999Z,66.13
2022-10-05T14:21:03.080Z,66.60
2022-10-05T14:23:29.970Z,66.61
2022-10-05T14:25:57.390Z,66.32
2022-10-05T14:28:30.931Z,65.62
2022-10-05T14:31:13.433Z,66.46
2022-10-05T14:33:40.710Z,66.19
2022-10-05T14:36:43.777Z,66.29
2022-10-05T14:39:13.663Z,66.27
2022-10-05T14:41:48.776Z,66.29
2022-10-05T14:44:15.316Z,67.16
2022-10-05T14:47:02.630Z,66.54
2022-10-05T14:49:30.464Z,66.88
2022-10-05T14:51:57.146Z,66.66
2022-10-05T14:54:41.087Z,66.02
2022-10-05T14:57:39.178Z,66.33
2022-10-05T15:00:17.810Z,66.66
2022-10-05T15:02:47.891Z,66.85
2022-10-05T15:05:23.176Z,66.33
2022-10-05T15:07:51.056Z,65.56
2022-10-05T15:10:52.061Z,65.25
2022-10-05T15:13:24.253Z,65.60
2022-10-05T15:15:56.072Z,65.86
2022-10-05T15:18:35.017Z,65.64
2022-10-05T15:21:04.332Z,66.14
2022-10-05T15:23:57.295Z,65.87
2022-10-05T15:26:45.726Z,65.24
2022-10-05T15:29:52.216Z,65.17
2022-10-05T15:32:49.685Z,64.13
2022-10-05T15:35:37.186Z,64.13
2022-10-05T15:38:25.756Z,65.04
2022-10-05T15:41:14.740Z,65.78
2022-10-05T15:43:58.969Z,65.91
2022-10-05T15:46:36.640Z,66.27
2022-10-05T15:49:22.161Z,66.38
2022-10-05T15:51:58.148Z,66.48
2022-10-05T15:55:02.607Z,66.30
2022-10-05T15:57:48.257Z,66.04
2022-10-05T16:00:19.525Z,66.45
2022-10-05T16:03:17.708Z,66.25
2022-10-05T16:06:26.187Z,66.74
2022-10-05T16:09:03.740Z,66.47
2022-10-05T16:11:48.371Z,66.16
2022-10-05T16:14:49.935Z,66.27
2022-10-05T16:17:16.258Z,66.30
2022-10-05T16:20:03.037Z,66.30
2022-10-05T16:22:43.354Z,66.60
2022-10-05T16:25:22.040Z,66.51
2022-10-05T16:28:15.278Z,66.36
2022-10-05T16:31:06.586Z,66.39
2022-10-05T16:33:52.725Z,66.48
2022-10-05T16:36:53.016Z,66.72
2022-10-05T16:39:34.925Z,66.86
2022-10-05T16:42:26.196Z,67.04
2022-10-05T16:45:23.946Z,66.90
2022-10-05T16:48:01.623Z,67.26
2022-10-05T16:50:38.738Z,67.27
2022-10-05T16:53:15.005Z,67.22
2022-10-05T16:55:46.187Z,67.26
2022-10-05T16:58:19.057Z,67.43
2022-10-05T17:00:51.820Z,67.51
2022-10-05T17:03:27.582Z,67.18
2022-10-05T17:05:56.872Z,67.31
2022-10-05T17:08:31.819Z,67.60
2022-10-05T17:11:17.286Z,67.55
2022-10-05T17:14:09.816Z,68.10
2022-10-05T17:16:53.888Z,68.29
2022-10-05T17:19:32.786Z,68.15
2022-10-05T17:22:00.715Z,68.05
2022-10-05T17:24:41.616Z,67.92
2022-10-05T17:27:17.921Z,68.12
2022-10-05T17:29:52.928Z,68.56
2022-10-05T17:32:19.389Z,68.61
2022-10-05T17:35:01.019Z,68.41
2022-10-05T17:37:27.431Z,68.23
2022-10-05T17:39:55.467Z,68.00
2022-10-05T17:42:36.899Z,67.58
2022-10-05T17:45:09.208Z,67.80
2022-10-05T17:48:09.445Z,67.63
2022-10-05T17:51:02.773Z,67.72
2022-10-05T17:54:03.159Z,67.71
2022-10-05T17:56:31.244Z,67.09
2022-10-05T17:59:06.565Z,67.06
2022-10-05T18:01:36.040Z,67.42
2022-10-05T18:04:11.695Z,66.83
2022-10-05T18:06:44.727Z,66.53
2022-10-05T18:09:11.356Z,66.26
2022-10-05T18:11:39.912Z,66.34
2022-10-05T18:14:19.853Z,66.23
2022-10-05T18:17:09.839Z,66.07
2022-10-05T18:19:37.565Z,65.67
2022-10-05T18:22:16.201Z,65.13
2022-10-05T18:28:06.551Z,64.49
2022-10-05T18:30:36.732Z,64.72
2022-10-05T18:33:13.795Z,63.93
2022-10-05T18:36:18.640Z,63.51
2022-10-05T18:38:56.312Z,63.49
2022-10-05T18:42:20.022Z,62.61
2022-10-05T18:44:50.159Z,62.46
2022-10-05T18:47:38.383Z,62.59
2022-10-05T18:50:23.240Z,62.60
2022-10-05T18:52:59.855Z,62.15
2022-10-05T18:55:38.160Z,61.95
2022-10-05T18:58:08.591Z,61.93
2022-10-05T19:01:02.032Z,62.10
2022-10-05T19:03:49.484Z,61.76
2022-10-05T19:06:24.217Z,62.03
2022-10-05T19:09:22.047Z,61.61
2022-10-05T19:12:10.357Z,61.82
2022-10-05T19:15:06.545Z,61.63
2022-10-05T19:17:47.903Z,61.75
2022-10-05T19:21:04.115Z,61.56
2022-10-05T19:23:45.880Z,61.35
2022-10-05T19:26:27.905Z,61.20
2022-10-05T19:29:16.307Z,61.70
2022-10-05T19:31:55.406Z,61.33
2022-10-05T19:34:30.651Z,61.83
2022-10-05T19:37:07.982Z,61.80
2022-10-05T19:39:37.480Z,61.94
2022-10-05T19:42:13.076Z,61.70
2022-10-05T19:44:57.771Z,61.73
2022-10-05T19:47:29.908Z,61.78
2022-10-05T19:49:56.151Z,61.65
2022-10-05T19:52:24.889Z,61.77
2022-10-05T19:55:10.052Z,61.71
2022-10-05T19:57:37.507Z,61.96
2022-10-05T20:00:03.960Z,62.00
2022-10-05T20:02:32.457Z,61.82
2022-10-05T20:05:05.529Z,62.37
2022-10-05T20:07:34.321Z,62.38
2022-10-05T20:10:19.673Z,62.37
2022-10-05T20:12:57.571Z,62.58
2022-10-05T20:15:46.226Z,62.48
2022-10-05T20:18:53.122Z,62.44
2022-10-05T20:21:37.156Z,62.61
2022-10-05T20:24:07.577Z,62.90
2022-10-05T20:27:02.461Z,62.93
2022-10-05T20:29:29.363Z,62.94
2022-10-05T20:31:55.885Z,62.93
2022-10-05T20:34:22.309Z,62.82
2022-10-05T20:36:49.069Z,63.08
2022-10-05T20:39:15.846Z,63.09
2022-10-05T20:41:42.865Z,62.99
2022-10-05T20:44:15.001Z,63.25
2022-10-05T20:46:41.614Z,63.39
2022-10-05T20:49:10.500Z,63.57
2022-10-05T20:51:37.523Z,63.96
2022-10-05T20:54:04.200Z,64.02
2022-10-05T20:56:31.382Z,64.14
2022-10-05T20:58:58.227Z,63.94
2022-10-05T21:01:26.848Z,64.34
2022-10-05T21:03:53.666Z,64.30
2022-10-05T21:06:27.960Z,64.42
2022-10-05T21:08:54.355Z,64.40
2022-10-05T21:11:21.164Z,64.75
2022-10-05T21:13:47.571Z,64.70
2022-10-05T21:16:15.453Z,64.93
2022-10-05T21:18:42.212Z,64.92
2022-10-05T21:21:08.600Z,65.30
2022-10-05T21:23:34.976Z,65.12
2022-10-05T21:26:01.480Z,65.20
2022-10-05T21:28:28.552Z,65.60
2022-10-05T21:30:56.279Z,65.59
2022-10-05T21:33:22.606Z,65.66
2022-10-05T21:35:50.485Z,65.82
2022-10-05T21:38:16.825Z,65.84
2022-10-05T21:40:45.333Z,66.08
2022-10-05T21:43:13.245Z,66.22
2022-10-05T21:45:39.711Z,66.13
2022-10-05T21:48:06.081Z,66.27
2022-10-05T21:50:32.548Z,66.68
2022-10-05T21:52:59.740Z,67.04
2022-10-05T21:55:26.044Z,66.92
2022-10-05T21:57:52.373Z,67.30
2022-10-05T22:00:20.707Z,67.64
2022-10-05T22:02:47.287Z,67.66
2022-10-05T22:05:16.125Z,67.73
2022-10-05T22:07:42.694Z,67.80
2022-10-05T22:10:09.351Z,68.10
2022-10-05T22:12:35.759Z,68.34
2022-10-05T22:15:02.733Z,68.39
2022-10-05T22:17:30.947Z,68.64
2022-10-05T22:20:00.618Z,68.89
2022-10-05T22:22:27.704Z,69.14
2022-10-05T22:24:54.244Z,69.21
2022-10-05T22:27:24.734Z,69.77
2022-10-05T22:29:53.054Z,69.83
2022-10-05T22:32:19.439Z,70.40
2022-10-05T22:34:45.756Z,70.61
2022-10-05T22:37:15.515Z,70.57
2022-10-05T22:39:43.247Z,70.96
2022-10-05T22:42:09.732Z,71.20
2022-10-05T22:44:36.026Z,71.11
2022-10-05T22:47:02.803Z,71.44
2022-10-05T22:49:29.510Z,71.51
2022-10-05T22:51:56.325Z,71.63
2022-10-05T22:54:27.453Z,71.69
2022-10-05T22:56:57.090Z,71.62
2022-10-05T22:59:23.442Z,71.89
2022-10-05T23:01:49.775Z,71.83
2022-10-05T23:04:16.132Z,71.85
2022-10-05T23:06:42.641Z,71.50
2022-10-05T23:09:08.952Z,71.41
2022-10-05T23:11:35.520Z,71.44
2022-10-05T23:14:48.736Z,71.14
2022-10-05T23:17:19.223Z,71.16
2022-10-05T23:19:45.544Z,71.18
2022-10-05T23:22:11.863Z,71.08
2022-10-05T23:24:38.329Z,71.20
2022-10-05T23:27:04.720Z,71.10
2022-10-05T23:29:31.052Z,71.22
2022-10-05T23:31:57.367Z,71.25
2022-10-05T23:34:25.536Z,70.87
2022-10-05T23:36:51.929Z,71.06
2022-10-05T23:39:18.240Z,71.21
2022-10-05T23:41:44.559Z,71.04
2022-10-05T23:44:10.907Z,71.41
2022-10-05T23:46:37.206Z,71.38
2022-10-05T23:49:04.712Z,71.40
2022-10-05T23:51:31.204Z,71.52
2022-10-05T23:53:57.526Z,71.62
2022-10-05T23:56:23.807Z,71.80
2022-10-05T23:58:50.117Z,71.55
